KHCR

Heber City Municipal - Russ McDonald Field Airport

Heber, Utah, USA
KHCR 201740Z 2018/2118 29008KT P6SM -SHRA BKN030 BKN060 FM210000 16008KT P6SM SCT030 BKN050 FM210900 VRB04KT P6SM SCT050 FM211700 20008KT P6SM FEW050
Issued Valid From Valid To
Apr-20 @ 17:40 UTC
(60 minutes ago)
Apr-20 @ 18:00 UTC
(40 minutes ago)
Apr-21 @ 18:00 UTC
(in 23 hours)
Apr-20 @ 18:00 to Apr-21 @ 00:00
KHCR 201740Z 2018/2118 29008KT P6SM -SHRA BKN030 BKN060
Wind Visibility Clouds Conditions
290° at 8 knots Greater than 6 miles
  • Broken at 3,000' AGL
  • Broken at 6,000' AGL
  • Light Rain
From Apr-21 @ 00:00 to Apr-21 @ 09:00
FM210000 16008KT P6SM SCT030 BKN050
Wind Visibility Clouds
160° at 8 knots Greater than 6 miles
  • Scattered at 3,000' AGL
  • Broken at 5,000' AGL
From Apr-21 @ 09:00 to Apr-21 @ 17:00
FM210900 VRB04KT P6SM SCT050
Wind Visibility Clouds
Variable at 4 knots Greater than 6 miles
  • Scattered at 5,000' AGL
From Apr-21 @ 17:00 to Apr-21 @ 18:00
FM211700 20008KT P6SM FEW050
Wind Visibility Clouds
200° at 8 knots Greater than 6 miles
  • Few at 5,000' AGL
KHCR 201740Z 2018/2118 29008KT P6SM -SHRA BKN030 BKN060 FM210000 16008KT P6SM SCT030 BKN050 FM210900 VRB04KT P6SM SCT050 FM211700 20008KT P6SM FEW050
Issued Apr-20 @ 17:40 UTC
(60 minutes ago)
Valid From Apr-20 @ 18:00 UTC
(40 minutes ago)
Valid To Apr-21 @ 18:00 UTC
(in 23 hours)
Apr-20 @ 18:00 - Apr-21 @ 00:00
Wind Visibility
290° at 8 knots Greater than 6 miles
Clouds
  • Broken at 3,000' AGL
  • Broken at 6,000' AGL
Conditions
  • Light Rain
From Apr-21 @ 00:00 - Apr-21 @ 09:00
Wind Visibility
160° at 8 knots Greater than 6 miles
Clouds
  • Scattered at 3,000' AGL
  • Broken at 5,000' AGL
From Apr-21 @ 09:00 - Apr-21 @ 17:00
Wind Visibility
Variable at 4 knots Greater than 6 miles
Clouds
  • Scattered at 5,000' AGL
From Apr-21 @ 17:00 - Apr-21 @ 18:00
Wind Visibility
200° at 8 knots Greater than 6 miles
Clouds
  • Few at 5,000' AGL